Airfield :







YOU CAN JOIN US ON...

 
LOGIN :

Register | Disclaimer

   EN    FR    IT 

 









Legend :    VFR   Marginal VFR   IFR   Intensive IFR   Very Intensive IFR
Visi :
Ceiling :
>= 8 km
>= 3000ft
5 to 8 km
1000 to 3000 ft
1500m to 5 km
500 to 1000 ft
800 to 1500m
200 to 500 ft
< 800m
< 200 ft
Symbols :   Thunderstorms  Fog  Heavy snow  Heavy precipitations  Wind > 20 kt







- Airport Elevation : 56 ft


KRKD - Knox County Regional

CURRENT METAR :
  • 251256Z AUTO 04008KT 10SM BKN023 06/02 A2995 RMK AO2 SLP142 T00560017

EXPIRED METARs :
  • 251156Z AUTO 03008G14KT 10SM BKN021 06/02 A2993 RMK AO2 SLP137 70001 T00560017 10056 20000 51021
  • 251056Z AUTO 00000KT 10SM CLR 01/01 A2991 RMK AO2 SLP132 T00110011 FZRANO

TAF KRKD
Valid from the 25 at 12:00 until the 26 at 12:00 UTC


251120Z 2512/2612 VRB03KT P6SM SCT030
TEMPO 2512/2514 BKN020
FM251400 35005KT P6SM BKN035
FM251700 20008KT P6SM SCT050
FM260400 22004KT P6SM SCT020 BKN100
KZBW FIR / North America



MET'MAP, your aeronautical weather chart ! - Copyright ORBIFLY December 2007 - Disclaimer

ORBIFLY MET'MAP TEAM :

Programming & Development : Alexandra Zaïnal
Concept & Development : Baudouin d'Aumeries
Co-Development & Prog : Marc-Olivier Méhu
Technical & hardware support : Manuel Goepfert

Contact : metmap@orbifly.com




SOURCES & CREDITS :

   NOAA